sensor_id;sensor_type;location;lat;lon;timestamp;pressure;altitude;pressure_sealevel;temperature;humidity
64025;BME280;50266;57.446;26.936;2023-11-18T00:00:17;99446.17;;;-4.34;100.0
64025;BME280;50266;57.446;26.936;2023-11-18T00:01:17;99445.95;;;-4.36;100.0
64025;BME280;50266;57.446;26.936;2023-11-18T00:02:17;99443.25;;;-4.37;100.0
64025;BME280;50266;57.446;26.936;2023-11-18T00:03:17;99441.87;;;-4.41;100.0
64025;BME280;50266;57.446;26.936;2023-11-18T00:04:17;99442.51;;;-4.39;100.0
64025;BME280;50266;57.446;26.936;2023-11-18T00:05:17;99443.58;;;-4.39;100.0
64025;BME280;50266;57.446;26.936;2023-11-18T00:06:17;99443.53;;;-4.39;100.0
64025;BME280;50266;57.446;26.936;2023-11-18T00:07:17;99446.94;;;-4.39;100.0
64025;BME280;50266;57.446;26.936;2023-11-18T00:08:17;99445.21;;;-4.4;100.0
64025;BME280;50266;57.446;26.936;2023-11-18T00:09:17;99443.91;;;-4.38;100.0
64025;BME280;50266;57.446;26.936;2023-11-18T00:10:17;99444.93;;;-4.38;100.0
64025;BME280;50266;57.446;26.936;2023-11-18T00:11:17;99444.38;;;-4.36;100.0
64025;BME280;50266;57.446;26.936;2023-11-18T00:12:17;99442.81;;;-4.36;100.0
64025;BME280;50266;57.446;26.936;2023-11-18T00:13:17;99440.36;;;-4.42;100.0
64025;BME280;50266;57.446;26.936;2023-11-18T00:14:17;99443.86;;;-4.4;100.0
64025;BME280;50266;57.446;26.936;2023-11-18T00:15:17;99443.85;;;-4.39;100.0
64025;BME280;50266;57.446;26.936;2023-11-18T00:16:17;99448.71;;;-4.38;100.0
64025;BME280;50266;57.446;26.936;2023-11-18T00:17:17;99450.35;;;-4.41;100.0
64025;BME280;50266;57.446;26.936;2023-11-18T00:18:17;99451.7;;;-4.4;100.0
64025;BME280;50266;57.446;26.936;2023-11-18T00:19:17;99453.45;;;-4.45;100.0
64025;BME280;50266;57.446;26.936;2023-11-18T00:20:17;99454.97;;;-4.45;100.0
64025;BME280;50266;57.446;26.936;2023-11-18T00:21:17;99450.48;;;-4.45;100.0
64025;BME280;50266;57.446;26.936;2023-11-18T00:22:17;99456.42;;;-4.43;100.0
64025;BME280;50266;57.446;26.936;2023-11-18T00:23:17;99458.09;;;-4.43;100.0
64025;BME280;50266;57.446;26.936;2023-11-18T00:24:17;99460.25;;;-4.42;100.0
64025;BME280;50266;57.446;26.936;2023-11-18T00:25:17;99461.17;;;-4.42;100.0
64025;BME280;50266;57.446;26.936;2023-11-18T00:26:17;99454.98;;;-4.48;100.0
64025;BME280;50266;57.446;26.936;2023-11-18T00:27:17;99462.05;;;-4.46;100.0
64025;BME280;50266;57.446;26.936;2023-11-18T00:28:17;99460.96;;;-4.43;100.0
64025;BME280;50266;57.446;26.936;2023-11-18T00:29:18;99463.55;;;-4.42;100.0
64025;BME280;50266;57.446;26.936;2023-11-18T00:30:17;99465.22;;;-4.41;100.0
64025;BME280;50266;57.446;26.936;2023-11-18T00:31:17;99465.0;;;-4.41;100.0
64025;BME280;50266;57.446;26.936;2023-11-18T00:32:18;99466.67;;;-4.4;100.0
64025;BME280;50266;57.446;26.936;2023-11-18T00:33:18;99461.2;;;-4.39;100.0
64025;BME280;50266;57.446;26.936;2023-11-18T00:34:18;99468.17;;;-4.38;100.0
64025;BME280;50266;57.446;26.936;2023-11-18T00:35:18;99464.66;;;-4.37;100.0
64025;BME280;50266;57.446;26.936;2023-11-18T00:36:18;99464.75;;;-4.36;100.0
64025;BME280;50266;57.446;26.936;2023-11-18T00:37:18;99468.95;;;-4.41;100.0
64025;BME280;50266;57.446;26.936;2023-11-18T00:38:18;99468.55;;;-4.38;100.0
64025;BME280;50266;57.446;26.936;2023-11-18T00:39:18;99467.46;;;-4.38;100.0
64025;BME280;50266;57.446;26.936;2023-11-18T00:40:18;99474.32;;;-4.36;100.0
64025;BME280;50266;57.446;26.936;2023-11-18T00:41:18;99469.72;;;-4.36;100.0
64025;BME280;50266;57.446;26.936;2023-11-18T00:42:18;99471.73;;;-4.35;100.0
64025;BME280;50266;57.446;26.936;2023-11-18T00:43:18;99470.34;;;-4.35;100.0
64025;BME280;50266;57.446;26.936;2023-11-18T00:44:18;99464.91;;;-4.36;100.0
64025;BME280;50266;57.446;26.936;2023-11-18T00:45:18;99467.09;;;-4.39;100.0
64025;BME280;50266;57.446;26.936;2023-11-18T00:46:18;99466.55;;;-4.39;100.0
64025;BME280;50266;57.446;26.936;2023-11-18T00:47:18;99464.98;;;-4.38;100.0
64025;BME280;50266;57.446;26.936;2023-11-18T00:48:18;99468.72;;;-4.4;100.0
64025;BME280;50266;57.446;26.936;2023-11-18T00:49:18;99471.63;;;-4.39;100.0
64025;BME280;50266;57.446;26.936;2023-11-18T00:50:18;99471.21;;;-4.41;100.0
64025;BME280;50266;57.446;26.936;2023-11-18T00:51:18;99467.7;;;-4.42;100.0
64025;BME280;50266;57.446;26.936;2023-11-18T00:52:18;99464.73;;;-4.41;100.0
64025;BME280;50266;57.446;26.936;2023-11-18T00:53:18;99464.73;;;-4.41;100.0
64025;BME280;50266;57.446;26.936;2023-11-18T00:54:18;99465.86;;;-4.41;100.0
64025;BME280;50266;57.446;26.936;2023-11-18T00:55:18;99469.95;;;-4.39;100.0
64025;BME280;50266;57.446;26.936;2023-11-18T00:56:18;99466.88;;;-4.39;100.0
64025;BME280;50266;57.446;26.936;2023-11-18T00:57:18;99465.52;;;-4.38;100.0
64025;BME280;50266;57.446;26.936;2023-11-18T00:58:18;99467.58;;;-4.38;100.0
64025;BME280;50266;57.446;26.936;2023-11-18T00:59:18;99465.74;;;-4.39;100.0
64025;BME280;50266;57.446;26.936;2023-11-18T01:00:23;99460.62;;;-4.4;100.0
64025;BME280;50266;57.446;26.936;2023-11-18T01:01:21;99463.59;;;-4.41;100.0
64025;BME280;50266;57.446;26.936;2023-11-18T01:02:21;99458.41;;;-4.43;100.0
64025;BME280;50266;57.446;26.936;2023-11-18T01:03:21;99460.47;;;-4.43;100.0
64025;BME280;50266;57.446;26.936;2023-11-18T01:04:21;99457.5;;;-4.44;100.0
64025;BME280;50266;57.446;26.936;2023-11-18T01:05:21;99460.21;;;-4.44;100.0
64025;BME280;50266;57.446;26.936;2023-11-18T01:06:21;99454.71;;;-4.47;100.0
64025;BME280;50266;57.446;26.936;2023-11-18T01:07:21;99454.75;;;-4.45;100.0
64025;BME280;50266;57.446;26.936;2023-11-18T01:08:21;99460.69;;;-4.44;100.0
64025;BME280;50266;57.446;26.936;2023-11-18T01:09:21;99453.41;;;-4.45;100.0
64025;BME280;50266;57.446;26.936;2023-11-18T01:10:21;99457.78;;;-4.44;100.0
64025;BME280;50266;57.446;26.936;2023-11-18T01:11:21;99453.66;;;-4.51;100.0
64025;BME280;50266;57.446;26.936;2023-11-18T01:12:21;99451.66;;;-4.53;100.0
64025;BME280;50266;57.446;26.936;2023-11-18T01:13:21;99454.53;;;-4.53;100.0
64025;BME280;50266;57.446;26.936;2023-11-18T01:14:21;99461.05;;;-4.51;100.0
64025;BME280;50266;57.446;26.936;2023-11-18T01:15:21;99459.06;;;-4.53;100.0
64025;BME280;50266;57.446;26.936;2023-11-18T01:16:21;99460.95;;;-4.51;100.0
64025;BME280;50266;57.446;26.936;2023-11-18T01:17:21;99460.3;;;-4.51;100.0
64025;BME280;50266;57.446;26.936;2023-11-18T01:18:21;99463.05;;;-4.51;100.0
64025;BME280;50266;57.446;26.936;2023-11-18T01:19:21;99467.48;;;-4.5;100.0
64025;BME280;50266;57.446;26.936;2023-11-18T01:20:21;99466.02;;;-4.5;100.0
64025;BME280;50266;57.446;26.936;2023-11-18T01:21:22;99468.72;;;-4.49;100.0
64025;BME280;50266;57.446;26.936;2023-11-18T01:22:22;99466.14;;;-4.52;100.0
64025;BME280;50266;57.446;26.936;2023-11-18T01:23:22;99466.91;;;-4.54;100.0
64025;BME280;50266;57.446;26.936;2023-11-18T01:24:22;99468.91;;;-4.53;100.0
64025;BME280;50266;57.446;26.936;2023-11-18T01:25:22;99469.55;;;-4.52;100.0
64025;BME280;50266;57.446;26.936;2023-11-18T01:26:22;99470.68;;;-4.52;100.0
64025;BME280;50266;57.446;26.936;2023-11-18T01:27:22;99472.67;;;-4.5;100.0
64025;BME280;50266;57.446;26.936;2023-11-18T01:28:22;99479.53;;;-4.51;100.0
64025;BME280;50266;57.446;26.936;2023-11-18T01:29:22;99477.21;;;-4.51;100.0
64025;BME280;50266;57.446;26.936;2023-11-18T01:30:22;99477.7;;;-4.53;100.0
64025;BME280;50266;57.446;26.936;2023-11-18T01:31:22;99474.86;;;-4.56;100.0
64025;BME280;50266;57.446;26.936;2023-11-18T01:32:22;99476.36;;;-4.53;100.0
64025;BME280;50266;57.446;26.936;2023-11-18T01:33:22;99477.59;;;-4.51;100.0
64025;BME280;50266;57.446;26.936;2023-11-18T01:34:22;99476.72;;;-4.5;100.0
64025;BME280;50266;57.446;26.936;2023-11-18T01:35:22;99475.47;;;-4.48;100.0
64025;BME280;50266;57.446;26.936;2023-11-18T01:36:22;99477.9;;;-4.48;100.0
64025;BME280;50266;57.446;26.936;2023-11-18T01:37:22;99480.57;;;-4.52;100.0
64025;BME280;50266;57.446;26.936;2023-11-18T01:38:22;99475.66;;;-4.54;100.0
64025;BME280;50266;57.446;26.936;2023-11-18T01:39:22;99475.67;;;-4.55;100.0
64025;BME280;50266;57.446;26.936;2023-11-18T01:40:22;99476.83;;;-4.51;100.0
64025;BME280;50266;57.446;26.936;2023-11-18T01:41:22;99475.14;;;-4.49;100.0
64025;BME280;50266;57.446;26.936;2023-11-18T01:42:22;99474.2;;;-4.44;100.0
64025;BME280;50266;57.446;26.936;2023-11-18T01:43:22;99473.87;;;-4.42;100.0
64025;BME280;50266;57.446;26.936;2023-11-18T01:44:22;99476.62;;;-4.42;100.0
64025;BME280;50266;57.446;26.936;2023-11-18T01:45:22;99471.38;;;-4.41;100.0
64025;BME280;50266;57.446;26.936;2023-11-18T01:46:22;99469.55;;;-4.42;100.0
64025;BME280;50266;57.446;26.936;2023-11-18T01:47:22;99471.33;;;-4.42;100.0
64025;BME280;50266;57.446;26.936;2023-11-18T01:48:27;99465.77;;;-4.43;100.0
64025;BME280;50266;57.446;26.936;2023-11-18T01:49:25;99468.61;;;-4.5;100.0
64025;BME280;50266;57.446;26.936;2023-11-18T01:50:25;99462.77;;;-4.47;100.0
64025;BME280;50266;57.446;26.936;2023-11-18T01:51:25;99470.48;;;-4.45;100.0
64025;BME280;50266;57.446;26.936;2023-11-18T01:52:26;99466.05;;;-4.47;100.0
64025;BME280;50266;57.446;26.936;2023-11-18T01:53:25;99465.56;;;-4.46;100.0
64025;BME280;50266;57.446;26.936;2023-11-18T01:54:25;99463.12;;;-4.44;100.0
64025;BME280;50266;57.446;26.936;2023-11-18T01:55:25;99460.11;;;-4.47;100.0
64025;BME280;50266;57.446;26.936;2023-11-18T01:56:25;99465.73;;;-4.45;100.0
64025;BME280;50266;57.446;26.936;2023-11-18T01:57:25;99464.59;;;-4.45;100.0
64025;BME280;50266;57.446;26.936;2023-11-18T01:58:25;99463.55;;;-4.44;100.0
64025;BME280;50266;57.446;26.936;2023-11-18T01:59:25;99466.84;;;-4.43;100.0
64025;BME280;50266;57.446;26.936;2023-11-18T02:00:25;99465.95;;;-4.48;100.0
64025;BME280;50266;57.446;26.936;2023-11-18T02:01:26;99466.25;;;-4.51;100.0
64025;BME280;50266;57.446;26.936;2023-11-18T02:02:26;99461.64;;;-4.5;100.0
64025;BME280;50266;57.446;26.936;2023-11-18T02:03:25;99466.39;;;-4.49;100.0
64025;BME280;50266;57.446;26.936;2023-11-18T02:04:25;99465.95;;;-4.48;100.0
64025;BME280;50266;57.446;26.936;2023-11-18T02:05:25;99465.91;;;-4.51;100.0
64025;BME280;50266;57.446;26.936;2023-11-18T02:06:25;99470.23;;;-4.49;100.0
64025;BME280;50266;57.446;26.936;2023-11-18T02:07:25;99467.3;;;-4.46;100.0
64025;BME280;50266;57.446;26.936;2023-11-18T02:08:25;99466.59;;;-4.47;100.0
64025;BME280;50266;57.446;26.936;2023-11-18T02:09:25;99471.58;;;-4.48;100.0
64025;BME280;50266;57.446;26.936;2023-11-18T02:10:26;99471.92;;;-4.51;100.0
64025;BME280;50266;57.446;26.936;2023-11-18T02:11:30;99473.2;;;-4.49;100.0
64025;BME280;50266;57.446;26.936;2023-11-18T02:13:31;99469.74;;;-4.49;100.0
64025;BME280;50266;57.446;26.936;2023-11-18T02:14:30;99473.36;;;-4.47;100.0
64025;BME280;50266;57.446;26.936;2023-11-18T02:15:30;99471.64;;;-4.51;100.0
64025;BME280;50266;57.446;26.936;2023-11-18T02:16:31;99469.7;;;-4.5;100.0
64025;BME280;50266;57.446;26.936;2023-11-18T02:17:30;99466.8;;;-4.54;100.0
64025;BME280;50266;57.446;26.936;2023-11-18T02:18:30;99470.41;;;-4.53;100.0
64025;BME280;50266;57.446;26.936;2023-11-18T02:19:30;99470.84;;;-4.52;100.0
64025;BME280;50266;57.446;26.936;2023-11-18T02:20:30;99473.28;;;-4.53;100.0
64025;BME280;50266;57.446;26.936;2023-11-18T02:21:30;99469.55;;;-4.57;100.0
64025;BME280;50266;57.446;26.936;2023-11-18T02:22:30;99473.41;;;-4.56;100.0
64025;BME280;50266;57.446;26.936;2023-11-18T02:23:30;99473.22;;;-4.56;100.0
64025;BME280;50266;57.446;26.936;2023-11-18T02:24:31;99472.05;;;-4.56;100.0
64025;BME280;50266;57.446;26.936;2023-11-18T02:25:31;99472.84;;;-4.53;100.0
64025;BME280;50266;57.446;26.936;2023-11-18T02:26:30;99473.28;;;-4.54;100.0
64025;BME280;50266;57.446;26.936;2023-11-18T02:27:31;99469.23;;;-4.58;100.0
64025;BME280;50266;57.446;26.936;2023-11-18T02:28:30;99466.97;;;-4.56;100.0
64025;BME280;50266;57.446;26.936;2023-11-18T02:29:32;99472.03;;;-4.53;100.0
64025;BME280;50266;57.446;26.936;2023-11-18T02:30:30;99466.66;;;-4.49;100.0
64025;BME280;50266;57.446;26.936;2023-11-18T02:31:33;99465.55;;;-4.43;100.0
64025;BME280;50266;57.446;26.936;2023-11-18T02:32:35;99469.75;;;-4.4;100.0
64025;BME280;50266;57.446;26.936;2023-11-18T02:33:35;99467.94;;;-4.46;100.0
64025;BME280;50266;57.446;26.936;2023-11-18T02:34:34;99464.67;;;-4.4;100.0
64025;BME280;50266;57.446;26.936;2023-11-18T02:35:36;99471.25;;;-4.39;100.0
64025;BME280;50266;57.446;26.936;2023-11-18T02:36:36;99469.73;;;-4.38;100.0
64025;BME280;50266;57.446;26.936;2023-11-18T02:37:37;99471.58;;;-4.39;100.0
64025;BME280;50266;57.446;26.936;2023-11-18T02:38:38;99476.08;;;-4.41;100.0
64025;BME280;50266;57.446;26.936;2023-11-18T02:39:39;99476.63;;;-4.44;100.0
64025;BME280;50266;57.446;26.936;2023-11-18T02:40:37;99474.91;;;-4.46;100.0
64025;BME280;50266;57.446;26.936;2023-11-18T02:41:36;99475.84;;;-4.46;100.0
64025;BME280;50266;57.446;26.936;2023-11-18T02:42:36;99478.44;;;-4.47;100.0
64025;BME280;50266;57.446;26.936;2023-11-18T02:43:36;99472.53;;;-4.45;100.0
64025;BME280;50266;57.446;26.936;2023-11-18T02:44:36;99473.01;;;-4.44;100.0
64025;BME280;50266;57.446;26.936;2023-11-18T02:45:36;99475.77;;;-4.43;100.0
64025;BME280;50266;57.446;26.936;2023-11-18T02:46:36;99479.82;;;-4.44;100.0
64025;BME280;50266;57.446;26.936;2023-11-18T02:47:36;99480.52;;;-4.44;100.0
64025;BME280;50266;57.446;26.936;2023-11-18T02:48:36;99477.3;;;-4.47;100.0
64025;BME280;50266;57.446;26.936;2023-11-18T02:49:36;99479.24;;;-4.47;100.0
64025;BME280;50266;57.446;26.936;2023-11-18T02:50:36;99483.24;;;-4.47;100.0
64025;BME280;50266;57.446;26.936;2023-11-18T02:51:36;99479.73;;;-4.47;100.0
64025;BME280;50266;57.446;26.936;2023-11-18T02:52:37;99481.52;;;-4.48;100.0
64025;BME280;50266;57.446;26.936;2023-11-18T02:53:36;99479.25;;;-4.48;100.0
64025;BME280;50266;57.446;26.936;2023-11-18T02:54:36;99477.55;;;-4.53;100.0
64025;BME280;50266;57.446;26.936;2023-11-18T02:55:36;99478.19;;;-4.51;100.0
64025;BME280;50266;57.446;26.936;2023-11-18T02:56:37;99484.02;;;-4.52;100.0
64025;BME280;50266;57.446;26.936;2023-11-18T02:57:37;99479.0;;;-4.53;100.0
64025;BME280;50266;57.446;26.936;2023-11-18T02:58:36;99477.27;;;-4.51;100.0
64025;BME280;50266;57.446;26.936;2023-11-18T02:59:36;99473.75;;;-4.5;100.0
64025;BME280;50266;57.446;26.936;2023-11-18T03:00:36;99475.53;;;-4.5;100.0
64025;BME280;50266;57.446;26.936;2023-11-18T03:01:36;99475.09;;;-4.5;100.0
64025;BME280;50266;57.446;26.936;2023-11-18T03:02:37;99473.52;;;-4.48;100.0
64025;BME280;50266;57.446;26.936;2023-11-18T03:03:37;99473.66;;;-4.53;100.0
64025;BME280;50266;57.446;26.936;2023-11-18T03:04:37;99474.67;;;-4.51;100.0
64025;BME280;50266;57.446;26.936;2023-11-18T03:05:37;99473.62;;;-4.48;100.0
64025;BME280;50266;57.446;26.936;2023-11-18T03:06:37;99472.17;;;-4.48;100.0
64025;BME280;50266;57.446;26.936;2023-11-18T03:07:37;99472.33;;;-4.46;100.0
64025;BME280;50266;57.446;26.936;2023-11-18T03:08:37;99469.03;;;-4.46;100.0
64025;BME280;50266;57.446;26.936;2023-11-18T03:09:37;99474.72;;;-4.49;100.0
64025;BME280;50266;57.446;26.936;2023-11-18T03:10:37;99474.19;;;-4.51;100.0
64025;BME280;50266;57.446;26.936;2023-11-18T03:11:37;99477.11;;;-4.53;100.0
64025;BME280;50266;57.446;26.936;2023-11-18T03:12:37;99473.72;;;-4.55;100.0
64025;BME280;50266;57.446;26.936;2023-11-18T03:13:37;99473.5;;;-4.55;100.0
64025;BME280;50266;57.446;26.936;2023-11-18T03:14:37;99474.91;;;-4.54;100.0
64025;BME280;50266;57.446;26.936;2023-11-18T03:15:37;99473.98;;;-4.53;100.0
64025;BME280;50266;57.446;26.936;2023-11-18T03:16:37;99473.05;;;-4.52;100.0
64025;BME280;50266;57.446;26.936;2023-11-18T03:17:37;99473.59;;;-4.52;100.0
64025;BME280;50266;57.446;26.936;2023-11-18T03:18:40;99473.54;;;-4.51;100.0
64025;BME280;50266;57.446;26.936;2023-11-18T03:19:37;99470.82;;;-4.48;100.0
64025;BME280;50266;57.446;26.936;2023-11-18T03:20:37;99469.58;;;-4.49;100.0
64025;BME280;50266;57.446;26.936;2023-11-18T03:21:37;99468.92;;;-4.47;100.0
64025;BME280;50266;57.446;26.936;2023-11-18T03:22:37;99471.53;;;-4.5;100.0
64025;BME280;50266;57.446;26.936;2023-11-18T03:23:38;99468.09;;;-4.55;100.0
64025;BME280;50266;57.446;26.936;2023-11-18T03:24:37;99474.09;;;-4.55;100.0
64025;BME280;50266;57.446;26.936;2023-11-18T03:25:37;99469.98;;;-4.57;100.0
64025;BME280;50266;57.446;26.936;2023-11-18T03:26:37;99470.22;;;-4.62;100.0
64025;BME280;50266;57.446;26.936;2023-11-18T03:27:38;99468.86;;;-4.6;100.0
64025;BME280;50266;57.446;26.936;2023-11-18T03:28:38;99467.06;;;-4.57;100.0
64025;BME280;50266;57.446;26.936;2023-11-18T03:29:38;99465.71;;;-4.57;100.0
64025;BME280;50266;57.446;26.936;2023-11-18T03:30:38;99468.8;;;-4.56;100.0
64025;BME280;50266;57.446;26.936;2023-11-18T03:31:38;99466.8;;;-4.57;100.0
64025;BME280;50266;57.446;26.936;2023-11-18T03:32:38;99464.02;;;-4.63;100.0
64025;BME280;50266;57.446;26.936;2023-11-18T03:33:38;99464.98;;;-4.63;100.0
64025;BME280;50266;57.446;26.936;2023-11-18T03:34:38;99468.81;;;-4.61;100.0
64025;BME280;50266;57.446;26.936;2023-11-18T03:35:38;99469.99;;;-4.59;100.0
64025;BME280;50266;57.446;26.936;2023-11-18T03:36:38;99467.55;;;-4.58;100.0
64025;BME280;50266;57.446;26.936;2023-11-18T03:37:38;99465.39;;;-4.58;100.0
64025;BME280;50266;57.446;26.936;2023-11-18T03:38:38;99466.2;;;-4.54;100.0
64025;BME280;50266;57.446;26.936;2023-11-18T03:39:38;99466.62;;;-4.52;100.0
64025;BME280;50266;57.446;26.936;2023-11-18T03:40:38;99462.41;;;-4.52;100.0
64025;BME280;50266;57.446;26.936;2023-11-18T03:41:38;99463.34;;;-4.54;100.0
64025;BME280;50266;57.446;26.936;2023-11-18T03:42:38;99466.03;;;-4.53;100.0
64025;BME280;50266;57.446;26.936;2023-11-18T03:43:38;99463.66;;;-4.53;100.0
64025;BME280;50266;57.446;26.936;2023-11-18T03:44:38;99464.58;;;-4.53;100.0
64025;BME280;50266;57.446;26.936;2023-11-18T03:45:38;99466.97;;;-4.56;100.0
64025;BME280;50266;57.446;26.936;2023-11-18T03:46:38;99461.13;;;-4.55;100.0
64025;BME280;50266;57.446;26.936;2023-11-18T03:47:38;99459.3;;;-4.55;100.0
64025;BME280;50266;57.446;26.936;2023-11-18T03:48:38;99463.67;;;-4.55;100.0
64025;BME280;50266;57.446;26.936;2023-11-18T03:49:38;99459.78;;;-4.54;100.0
64025;BME280;50266;57.446;26.936;2023-11-18T03:50:38;99461.7;;;-4.51;100.0
64025;BME280;50266;57.446;26.936;2023-11-18T03:51:38;99460.56;;;-4.51;100.0
64025;BME280;50266;57.446;26.936;2023-11-18T03:52:38;99456.99;;;-4.49;100.0
64025;BME280;50266;57.446;26.936;2023-11-18T03:53:38;99461.85;;;-4.48;100.0
64025;BME280;50266;57.446;26.936;2023-11-18T03:54:38;99457.44;;;-4.51;100.0
64025;BME280;50266;57.446;26.936;2023-11-18T03:55:38;99457.7;;;-4.49;100.0
64025;BME280;50266;57.446;26.936;2023-11-18T03:56:38;99460.2;;;-4.52;100.0
64025;BME280;50266;57.446;26.936;2023-11-18T03:57:38;99457.71;;;-4.52;100.0
64025;BME280;50266;57.446;26.936;2023-11-18T03:58:38;99459.98;;;-4.52;100.0
64025;BME280;50266;57.446;26.936;2023-11-18T03:59:41;99457.55;;;-4.52;100.0
64025;BME280;50266;57.446;26.936;2023-11-18T04:00:38;99458.53;;;-4.53;100.0
64025;BME280;50266;57.446;26.936;2023-11-18T04:01:38;99457.66;;;-4.52;100.0
64025;BME280;50266;57.446;26.936;2023-11-18T04:02:38;99461.81;;;-4.52;100.0
64025;BME280;50266;57.446;26.936;2023-11-18T04:03:38;99459.92;;;-4.52;100.0
64025;BME280;50266;57.446;26.936;2023-11-18T04:04:38;99457.34;;;-4.52;100.0
64025;BME280;50266;57.446;26.936;2023-11-18T04:05:38;99461.98;;;-4.51;100.0
64025;BME280;50266;57.446;26.936;2023-11-18T04:06:38;99464.8;;;-4.53;100.0
64025;BME280;50266;57.446;26.936;2023-11-18T04:07:38;99459.51;;;-4.55;100.0
64025;BME280;50266;57.446;26.936;2023-11-18T04:08:38;99459.35;;;-4.55;100.0
64025;BME280;50266;57.446;26.936;2023-11-18T04:09:38;99463.88;;;-4.57;100.0
64025;BME280;50266;57.446;26.936;2023-11-18T04:10:38;99461.07;;;-4.58;100.0
64025;BME280;50266;57.446;26.936;2023-11-18T04:11:38;99457.73;;;-4.6;100.0
64025;BME280;50266;57.446;26.936;2023-11-18T04:12:38;99461.62;;;-4.6;100.0
64025;BME280;50266;57.446;26.936;2023-11-18T04:13:38;99455.08;;;-4.59;100.0
64025;BME280;50266;57.446;26.936;2023-11-18T04:14:38;99459.12;;;-4.59;100.0
64025;BME280;50266;57.446;26.936;2023-11-18T04:15:38;99458.11;;;-4.59;100.0
64025;BME280;50266;57.446;26.936;2023-11-18T04:16:38;99459.62;;;-4.59;100.0
64025;BME280;50266;57.446;26.936;2023-11-18T04:17:38;99453.86;;;-4.63;100.0
64025;BME280;50266;57.446;26.936;2023-11-18T04:18:39;99453.64;;;-4.63;100.0
64025;BME280;50266;57.446;26.936;2023-11-18T04:19:38;99457.09;;;-4.61;100.0
64025;BME280;50266;57.446;26.936;2023-11-18T04:20:38;99457.41;;;-4.6;100.0
64025;BME280;50266;57.446;26.936;2023-11-18T04:21:38;99452.48;;;-4.59;100.0
64025;BME280;50266;57.446;26.936;2023-11-18T04:22:41;99452.8;;;-4.58;100.0
64025;BME280;50266;57.446;26.936;2023-11-18T04:23:39;99452.31;;;-4.57;100.0
64025;BME280;50266;57.446;26.936;2023-11-18T04:24:38;99454.09;;;-4.57;100.0
64025;BME280;50266;57.446;26.936;2023-11-18T04:25:38;99455.14;;;-4.55;100.0
64025;BME280;50266;57.446;26.936;2023-11-18T04:26:39;99453.46;;;-4.55;100.0
64025;BME280;50266;57.446;26.936;2023-11-18T04:27:39;99457.62;;;-4.56;100.0
64025;BME280;50266;57.446;26.936;2023-11-18T04:28:39;99455.08;;;-4.55;100.0
64025;BME280;50266;57.446;26.936;2023-11-18T04:29:39;99456.81;;;-4.56;100.0
64025;BME280;50266;57.446;26.936;2023-11-18T04:30:39;99453.56;;;-4.58;100.0
64025;BME280;50266;57.446;26.936;2023-11-18T04:31:39;99453.69;;;-4.6;100.0
64025;BME280;50266;57.446;26.936;2023-11-18T04:32:39;99451.46;;;-4.59;100.0
64025;BME280;50266;57.446;26.936;2023-11-18T04:33:39;99448.13;;;-4.63;100.0
64025;BME280;50266;57.446;26.936;2023-11-18T04:34:39;99452.19;;;-4.63;100.0
64025;BME280;50266;57.446;26.936;2023-11-18T04:35:39;99450.78;;;-4.63;100.0
64025;BME280;50266;57.446;26.936;2023-11-18T04:36:42;99448.61;;;-4.62;100.0
64025;BME280;50266;57.446;26.936;2023-11-18T04:37:39;99446.94;;;-4.61;100.0
64025;BME280;50266;57.446;26.936;2023-11-18T04:38:39;99446.28;;;-4.61;100.0
64025;BME280;50266;57.446;26.936;2023-11-18T04:39:39;99449.62;;;-4.59;100.0
64025;BME280;50266;57.446;26.936;2023-11-18T04:40:39;99451.73;;;-4.59;100.0
64025;BME280;50266;57.446;26.936;2023-11-18T04:41:39;99448.48;;;-4.57;100.0
64025;BME280;50266;57.446;26.936;2023-11-18T04:42:40;99444.54;;;-4.58;100.0
64025;BME280;50266;57.446;26.936;2023-11-18T04:43:40;99440.94;;;-4.62;100.0
64025;BME280;50266;57.446;26.936;2023-11-18T04:44:41;99442.58;;;-4.66;100.0
64025;BME280;50266;57.446;26.936;2023-11-18T04:45:44;99445.71;;;-4.65;100.0
64025;BME280;50266;57.446;26.936;2023-11-18T04:46:41;99442.25;;;-4.64;100.0
64025;BME280;50266;57.446;26.936;2023-11-18T04:47:41;99441.3;;;-4.67;100.0
64025;BME280;50266;57.446;26.936;2023-11-18T04:48:41;99440.3;;;-4.64;100.0
64025;BME280;50266;57.446;26.936;2023-11-18T04:49:41;99437.23;;;-4.64;100.0
64025;BME280;50266;57.446;26.936;2023-11-18T04:50:41;99440.84;;;-4.64;100.0
64025;BME280;50266;57.446;26.936;2023-11-18T04:51:41;99439.06;;;-4.63;100.0
64025;BME280;50266;57.446;26.936;2023-11-18T04:52:41;99439.11;;;-4.63;100.0
64025;BME280;50266;57.446;26.936;2023-11-18T04:53:41;99440.03;;;-4.63;100.0
64025;BME280;50266;57.446;26.936;2023-11-18T04:54:41;99443.48;;;-4.63;100.0
64025;BME280;50266;57.446;26.936;2023-11-18T04:55:41;99445.27;;;-4.62;100.0
64025;BME280;50266;57.446;26.936;2023-11-18T04:56:41;99442.42;;;-4.67;100.0
64025;BME280;50266;57.446;26.936;2023-11-18T04:57:41;99448.09;;;-4.67;100.0
64025;BME280;50266;57.446;26.936;2023-11-18T04:58:41;99444.47;;;-4.66;100.0
64025;BME280;50266;57.446;26.936;2023-11-18T04:59:44;99450.58;;;-4.66;100.0
64025;BME280;50266;57.446;26.936;2023-11-18T05:00:41;99453.01;;;-4.65;100.0
64025;BME280;50266;57.446;26.936;2023-11-18T05:01:41;99451.38;;;-4.65;100.0
64025;BME280;50266;57.446;26.936;2023-11-18T05:02:41;99446.08;;;-4.63;100.0
64025;BME280;50266;57.446;26.936;2023-11-18T05:03:41;99449.38;;;-4.62;100.0
64025;BME280;50266;57.446;26.936;2023-11-18T05:04:41;99444.3;;;-4.63;100.0
64025;BME280;50266;57.446;26.936;2023-11-18T05:05:41;99450.07;;;-4.62;100.0
64025;BME280;50266;57.446;26.936;2023-11-18T05:06:41;99449.31;;;-4.62;100.0
64025;BME280;50266;57.446;26.936;2023-11-18T05:07:41;99447.91;;;-4.61;100.0
64025;BME280;50266;57.446;26.936;2023-11-18T05:08:41;99449.99;;;-4.58;100.0
64025;BME280;50266;57.446;26.936;2023-11-18T05:09:41;99456.27;;;-4.58;100.0
64025;BME280;50266;57.446;26.936;2023-11-18T05:10:45;99449.67;;;-4.58;100.0
64025;BME280;50266;57.446;26.936;2023-11-18T05:11:42;99455.78;;;-4.58;100.0
64025;BME280;50266;57.446;26.936;2023-11-18T05:12:42;99453.56;;;-4.58;100.0
64025;BME280;50266;57.446;26.936;2023-11-18T05:13:42;99454.33;;;-4.6;100.0
64025;BME280;50266;57.446;26.936;2023-11-18T05:14:42;99456.39;;;-4.62;100.0
64025;BME280;50266;57.446;26.936;2023-11-18T05:15:43;99453.27;;;-4.64;100.0